sensor_id;sensor_type;location;lat;lon;timestamp;pressure;altitude;pressure_sealevel;temperature;humidity
51081;BME280;37130;55.670;37.596;2023-09-19T00:00:39;99991.44;;;11.55;89.16
51081;BME280;37130;55.670;37.596;2023-09-19T00:03:09;100023.41;;;11.52;89.71
51081;BME280;37130;55.670;37.596;2023-09-19T00:05:37;100020.19;;;11.45;89.78
51081;BME280;37130;55.670;37.596;2023-09-19T00:08:05;100019.59;;;11.38;90.37
51081;BME280;37130;55.670;37.596;2023-09-19T00:10:33;100007.75;;;11.27;90.93
51081;BME280;37130;55.670;37.596;2023-09-19T00:13:03;100023.66;;;11.27;90.44
51081;BME280;37130;55.670;37.596;2023-09-19T00:15:39;100010.78;;;11.17;91.14
51081;BME280;37130;55.670;37.596;2023-09-19T00:18:08;100018.47;;;11.24;90.94
51081;BME280;37130;55.670;37.596;2023-09-19T00:20:37;100018.69;;;11.19;90.93
51081;BME280;37130;55.670;37.596;2023-09-19T00:23:05;100011.44;;;11.23;91.39
51081;BME280;37130;55.670;37.596;2023-09-19T00:25:32;100002.28;;;11.30;91.82
51081;BME280;37130;55.670;37.596;2023-09-19T00:28:03;99934.78;;;10.97;91.01
51081;BME280;37130;55.670;37.596;2023-09-19T00:30:31;100006.63;;;11.51;90.64
51081;BME280;37130;55.670;37.596;2023-09-19T00:33:00;99953.44;;;11.15;90.57
51081;BME280;37130;55.670;37.596;2023-09-19T00:35:28;99883.66;;;10.75;90.64
51081;BME280;37130;55.670;37.596;2023-09-19T00:37:55;100016.09;;;11.57;90.45
51081;BME280;37130;55.670;37.596;2023-09-19T00:40:23;99981.59;;;11.38;90.14
51081;BME280;37130;55.670;37.596;2023-09-19T00:42:51;100004.13;;;11.48;90.35
51081;BME280;37130;55.670;37.596;2023-09-19T00:45:18;100011.81;;;11.54;90.67
51081;BME280;37130;55.670;37.596;2023-09-19T00:47:49;100021.22;;;11.61;90.82
51081;BME280;37130;55.670;37.596;2023-09-19T00:50:20;99962.19;;;11.17;90.58
51081;BME280;37130;55.670;37.596;2023-09-19T00:52:50;100006.97;;;11.44;90.10
51081;BME280;37130;55.670;37.596;2023-09-19T00:55:20;99990.25;;;11.41;89.89
51081;BME280;37130;55.670;37.596;2023-09-19T00:57:48;99885.47;;;10.74;90.04
51081;BME280;37130;55.670;37.596;2023-09-19T01:00:19;99932.59;;;11.07;89.35
51081;BME280;37130;55.670;37.596;2023-09-19T01:02:48;100012.16;;;11.66;89.75
51081;BME280;37130;55.670;37.596;2023-09-19T01:05:16;100006.50;;;11.73;89.57
51081;BME280;37130;55.670;37.596;2023-09-19T01:07:45;100014.22;;;11.79;89.34
51081;BME280;37130;55.670;37.596;2023-09-19T01:10:14;100013.47;;;11.76;88.92
51081;BME280;37130;55.670;37.596;2023-09-19T01:18:46;99925.06;;;10.98;89.77
51081;BME280;37130;55.670;37.596;2023-09-19T01:21:55;100004.47;;;11.40;89.72
51081;BME280;37130;55.670;37.596;2023-09-19T01:29:50;100003.13;;;11.51;89.52
51081;BME280;37130;55.670;37.596;2023-09-19T01:32:19;100013.41;;;11.58;89.97
51081;BME280;37130;55.670;37.596;2023-09-19T01:34:54;99961.25;;;11.18;89.47
51081;BME280;37130;55.670;37.596;2023-09-19T01:37:24;100006.97;;;11.44;89.39
51081;BME280;37130;55.670;37.596;2023-09-19T01:40:01;99939.41;;;10.92;89.65
51081;BME280;37130;55.670;37.596;2023-09-19T01:43:03;100005.31;;;11.41;89.71
51081;BME280;37130;55.670;37.596;2023-09-19T01:51:06;99992.09;;;11.21;89.39
51081;BME280;37130;55.670;37.596;2023-09-19T01:56:45;100000.22;;;11.16;89.95
51081;BME280;37130;55.670;37.596;2023-09-19T01:59:19;99994.72;;;11.21;90.12
51081;BME280;37130;55.670;37.596;2023-09-19T02:01:49;99994.06;;;11.15;89.85
51081;BME280;37130;55.670;37.596;2023-09-19T02:04:19;99986.88;;;10.99;89.76
51081;BME280;37130;55.670;37.596;2023-09-19T02:06:46;99981.22;;;10.86;89.91
51081;BME280;37130;55.670;37.596;2023-09-19T02:09:16;99918.13;;;10.33;90.22
51081;BME280;37130;55.670;37.596;2023-09-19T02:11:44;99982.31;;;10.60;91.21
51081;BME280;37130;55.670;37.596;2023-09-19T02:14:12;99952.44;;;10.36;90.72
51081;BME280;37130;55.670;37.596;2023-09-19T02:16:39;99970.88;;;10.37;91.16
51081;BME280;37130;55.670;37.596;2023-09-19T02:19:07;99980.75;;;10.34;91.84
51081;BME280;37130;55.670;37.596;2023-09-19T02:21:35;99968.47;;;10.09;91.85
51081;BME280;37130;55.670;37.596;2023-09-19T02:24:03;99977.78;;;10.19;91.94
51081;BME280;37130;55.670;37.596;2023-09-19T02:26:30;99906.72;;;9.64;91.99
51081;BME280;37130;55.670;37.596;2023-09-19T02:28:57;99973.00;;;10.05;92.76
51081;BME280;37130;55.670;37.596;2023-09-19T02:31:25;99813.03;;;9.03;92.37
51081;BME280;37130;55.670;37.596;2023-09-19T02:33:53;99969.06;;;9.94;92.19
51081;BME280;37130;55.670;37.596;2023-09-19T02:36:21;99975.16;;;9.96;92.94
51081;BME280;37130;55.670;37.596;2023-09-19T02:38:50;99890.13;;;9.37;92.48
51081;BME280;37130;55.670;37.596;2023-09-19T02:41:17;99904.97;;;9.41;93.12
51081;BME280;37130;55.670;37.596;2023-09-19T02:43:44;99977.41;;;9.83;93.56
51081;BME280;37130;55.670;37.596;2023-09-19T02:46:12;99980.97;;;9.82;93.82
51081;BME280;37130;55.670;37.596;2023-09-19T02:48:40;99967.19;;;9.74;93.26
51081;BME280;37130;55.670;37.596;2023-09-19T02:51:09;99970.75;;;9.73;94.17
51081;BME280;37130;55.670;37.596;2023-09-19T02:53:36;99883.81;;;9.18;93.92
51081;BME280;37130;55.670;37.596;2023-09-19T02:56:04;99952.13;;;9.52;94.22
51081;BME280;37130;55.670;37.596;2023-09-19T02:58:31;99964.63;;;9.72;93.93
51081;BME280;37130;55.670;37.596;2023-09-19T03:01:12;99971.66;;;9.72;94.57
51081;BME280;37130;55.670;37.596;2023-09-19T03:03:40;99975.75;;;9.80;93.97
51081;BME280;37130;55.670;37.596;2023-09-19T03:06:08;99977.22;;;9.87;93.94
51081;BME280;37130;55.670;37.596;2023-09-19T03:08:36;99971.84;;;9.91;93.89
51081;BME280;37130;55.670;37.596;2023-09-19T03:11:06;99961.78;;;9.77;94.23
51081;BME280;37130;55.670;37.596;2023-09-19T03:13:34;99886.44;;;9.41;94.20
51081;BME280;37130;55.670;37.596;2023-09-19T03:16:04;99979.53;;;9.97;94.84
51081;BME280;37130;55.670;37.596;2023-09-19T03:18:34;99968.91;;;9.98;94.69
51081;BME280;37130;55.670;37.596;2023-09-19T03:21:02;99829.91;;;9.22;94.39
51081;BME280;37130;55.670;37.596;2023-09-19T03:23:30;99965.84;;;10.31;94.50
51081;BME280;37130;55.670;37.596;2023-09-19T03:25:57;99963.50;;;10.45;94.05
51081;BME280;37130;55.670;37.596;2023-09-19T03:28:26;99978.22;;;10.73;93.38
51081;BME280;37130;55.670;37.596;2023-09-19T03:31:02;99853.16;;;10.03;92.83
51081;BME280;37130;55.670;37.596;2023-09-19T03:33:31;99971.47;;;10.86;92.32
51081;BME280;37130;55.670;37.596;2023-09-19T03:36:02;99974.66;;;10.94;91.80
51081;BME280;37130;55.670;37.596;2023-09-19T03:38:33;99971.88;;;10.97;92.42
51081;BME280;37130;55.670;37.596;2023-09-19T03:41:02;99876.56;;;10.55;91.67
51081;BME280;37130;55.670;37.596;2023-09-19T03:43:32;99891.22;;;10.64;91.25
51081;BME280;37130;55.670;37.596;2023-09-19T03:46:02;99960.41;;;11.17;91.04
51081;BME280;37130;55.670;37.596;2023-09-19T03:48:37;99854.34;;;10.59;90.45
51081;BME280;37130;55.670;37.596;2023-09-19T03:51:04;99960.94;;;11.26;90.35
51081;BME280;37130;55.670;37.596;2023-09-19T03:53:32;99953.91;;;11.25;89.61
51081;BME280;37130;55.670;37.596;2023-09-19T03:55:59;99977.75;;;11.45;89.50
51081;BME280;37130;55.670;37.596;2023-09-19T03:58:31;99973.00;;;11.52;89.56
51081;BME280;37130;55.670;37.596;2023-09-19T04:00:58;99946.78;;;11.46;89.00
51081;BME280;37130;55.670;37.596;2023-09-19T04:03:27;99964.41;;;11.66;88.99
51081;BME280;37130;55.670;37.596;2023-09-19T04:06:03;99952.88;;;11.67;88.62
51081;BME280;37130;55.670;37.596;2023-09-19T04:08:30;99962.56;;;11.68;88.75
51081;BME280;37130;55.670;37.596;2023-09-19T04:10:58;99967.59;;;11.74;88.47
51081;BME280;37130;55.670;37.596;2023-09-19T04:13:26;99955.34;;;11.71;88.69
51081;BME280;37130;55.670;37.596;2023-09-19T04:15:53;99948.22;;;11.72;88.42
51081;BME280;37130;55.670;37.596;2023-09-19T04:18:21;99876.53;;;11.35;87.91
51081;BME280;37130;55.670;37.596;2023-09-19T04:20:50;99946.94;;;11.80;87.49
51081;BME280;37130;55.670;37.596;2023-09-19T04:23:18;99959.25;;;11.81;87.37
51081;BME280;37130;55.670;37.596;2023-09-19T04:25:48;99967.31;;;11.80;87.03
51081;BME280;37130;55.670;37.596;2023-09-19T04:28:16;99967.03;;;11.86;87.54
51081;BME280;37130;55.670;37.596;2023-09-19T04:30:43;99944.97;;;11.84;86.68
51081;BME280;37130;55.670;37.596;2023-09-19T04:33:10;99953.19;;;11.79;87.01
51081;BME280;37130;55.670;37.596;2023-09-19T04:35:38;99954.25;;;11.75;86.97
51081;BME280;37130;55.670;37.596;2023-09-19T04:38:06;99925.56;;;11.65;86.81
51081;BME280;37130;55.670;37.596;2023-09-19T04:40:34;99927.22;;;11.67;87.06
51081;BME280;37130;55.670;37.596;2023-09-19T04:43:02;99943.88;;;11.90;87.19
51081;BME280;37130;55.670;37.596;2023-09-19T04:45:29;99924.00;;;11.98;87.01
51081;BME280;37130;55.670;37.596;2023-09-19T04:47:57;99901.66;;;12.02;86.34
51081;BME280;37130;55.670;37.596;2023-09-19T04:50:24;99943.00;;;12.44;85.90
51081;BME280;37130;55.670;37.596;2023-09-19T04:52:55;99935.88;;;12.62;84.90
51081;BME280;37130;55.670;37.596;2023-09-19T04:55:22;99941.59;;;12.72;84.31
51081;BME280;37130;55.670;37.596;2023-09-19T04:57:50;99942.22;;;12.94;83.67
51081;BME280;37130;55.670;37.596;2023-09-19T05:00:21;99947.44;;;13.13;82.67
51081;BME280;37130;55.670;37.596;2023-09-19T05:02:52;99881.47;;;12.69;82.29
51081;BME280;37130;55.670;37.596;2023-09-19T05:05:20;99939.34;;;13.15;82.13
51081;BME280;37130;55.670;37.596;2023-09-19T05:07:50;99927.63;;;13.02;81.49
51081;BME280;37130;55.670;37.596;2023-09-19T05:10:18;99938.69;;;12.94;81.31
51081;BME280;37130;55.670;37.596;2023-09-19T05:12:46;99942.78;;;12.84;81.61
51081;BME280;37130;55.670;37.596;2023-09-19T05:15:15;99834.16;;;12.08;81.58
51081;BME280;37130;55.670;37.596;2023-09-19T05:17:53;99925.81;;;12.69;81.45
51081;BME280;37130;55.670;37.596;2023-09-19T05:20:25;99923.38;;;12.82;80.86
51081;BME280;37130;55.670;37.596;2023-09-19T05:23:05;99928.66;;;12.99;80.80
51081;BME280;37130;55.670;37.596;2023-09-19T05:25:36;99817.63;;;12.71;79.86
51081;BME280;37130;55.670;37.596;2023-09-19T05:28:09;99939.59;;;13.77;78.46
51081;BME280;37130;55.670;37.596;2023-09-19T05:30:37;99879.91;;;13.97;77.26
51081;BME280;37130;55.670;37.596;2023-09-19T05:33:13;99924.31;;;14.88;75.24
51081;BME280;37130;55.670;37.596;2023-09-19T05:35:41;99900.53;;;15.00;74.37
51081;BME280;37130;55.670;37.596;2023-09-19T05:38:09;99926.75;;;15.36;73.71
51081;BME280;37130;55.670;37.596;2023-09-19T05:40:37;99922.44;;;16.18;71.61
51081;BME280;37130;55.670;37.596;2023-09-19T05:43:06;99873.31;;;17.12;68.63
51081;BME280;37130;55.670;37.596;2023-09-19T05:45:34;99921.34;;;19.09;65.07
51081;BME280;37130;55.670;37.596;2023-09-19T05:48:12;99924.75;;;20.55;61.42
51081;BME280;37130;55.670;37.596;2023-09-19T05:50:40;99925.69;;;20.66;60.26
51081;BME280;37130;55.670;37.596;2023-09-19T05:53:08;99919.94;;;21.74;57.65
51081;BME280;37130;55.670;37.596;2023-09-19T05:55:38;99913.28;;;22.47;55.51
51081;BME280;37130;55.670;37.596;2023-09-19T05:58:06;99909.28;;;23.47;53.36
51081;BME280;37130;55.670;37.596;2023-09-19T06:00:34;99904.16;;;24.99;50.05
51081;BME280;37130;55.670;37.596;2023-09-19T06:03:04;99927.81;;;26.09;47.88
51081;BME280;37130;55.670;37.596;2023-09-19T06:05:32;99873.41;;;26.43;45.39
51081;BME280;37130;55.670;37.596;2023-09-19T06:08:00;99862.28;;;25.45;45.59
51081;BME280;37130;55.670;37.596;2023-09-19T06:10:28;99931.91;;;26.13;46.45
51081;BME280;37130;55.670;37.596;2023-09-19T06:12:56;99927.59;;;27.27;44.20
51081;BME280;37130;55.670;37.596;2023-09-19T06:15:25;99909.47;;;26.62;43.62
51081;BME280;37130;55.670;37.596;2023-09-19T06:17:55;99905.72;;;25.62;44.94
51081;BME280;37130;55.670;37.596;2023-09-19T06:20:24;99926.59;;;26.62;44.08
51081;BME280;37130;55.670;37.596;2023-09-19T06:22:53;99794.97;;;26.32;43.03
51081;BME280;37130;55.670;37.596;2023-09-19T06:25:21;99927.78;;;27.34;41.99
51081;BME280;37130;55.670;37.596;2023-09-19T06:27:51;99915.09;;;27.65;40.90
51081;BME280;37130;55.670;37.596;2023-09-19T06:30:24;99927.09;;;27.15;41.50
51081;BME280;37130;55.670;37.596;2023-09-19T06:32:59;99928.47;;;27.36;41.69
51081;BME280;37130;55.670;37.596;2023-09-19T06:35:28;99940.09;;;28.39;39.75
51081;BME280;37130;55.670;37.596;2023-09-19T06:38:03;99859.50;;;28.53;38.99
51081;BME280;37130;55.670;37.596;2023-09-19T06:40:31;99846.03;;;28.52;38.57
51081;BME280;37130;55.670;37.596;2023-09-19T06:42:58;99913.59;;;30.21;37.13
51081;BME280;37130;55.670;37.596;2023-09-19T06:45:28;99911.97;;;29.76;37.11
51081;BME280;37130;55.670;37.596;2023-09-19T06:47:56;99928.22;;;30.50;36.60
51081;BME280;37130;55.670;37.596;2023-09-19T06:50:26;99859.13;;;28.56;36.98
51081;BME280;37130;55.670;37.596;2023-09-19T06:52:55;99908.09;;;25.99;40.91
51081;BME280;37130;55.670;37.596;2023-09-19T06:55:26;99786.44;;;23.59;43.33
51081;BME280;37130;55.670;37.596;2023-09-19T06:57:59;99833.25;;;23.32;44.58
51081;BME280;37130;55.670;37.596;2023-09-19T07:00:26;99915.97;;;22.86;45.67
51081;BME280;37130;55.670;37.596;2023-09-19T07:02:59;99918.44;;;22.00;47.66
51081;BME280;37130;55.670;37.596;2023-09-19T07:05:29;99912.53;;;21.66;48.24
51081;BME280;37130;55.670;37.596;2023-09-19T07:07:57;99907.22;;;21.24;49.14
51081;BME280;37130;55.670;37.596;2023-09-19T07:10:28;99925.56;;;20.67;50.80
51081;BME280;37130;55.670;37.596;2023-09-19T07:13:03;99914.84;;;20.56;50.84
51081;BME280;37130;55.670;37.596;2023-09-19T07:15:32;99915.31;;;20.82;50.52
51081;BME280;37130;55.670;37.596;2023-09-19T07:18:04;99903.28;;;20.33;51.15
51081;BME280;37130;55.670;37.596;2023-09-19T07:20:32;99897.91;;;19.89;52.58
51081;BME280;37130;55.670;37.596;2023-09-19T07:23:01;99831.03;;;20.07;52.02
51081;BME280;37130;55.670;37.596;2023-09-19T07:25:29;99904.22;;;21.17;51.32
51081;BME280;37130;55.670;37.596;2023-09-19T07:27:58;99815.63;;;21.74;49.48
51081;BME280;37130;55.670;37.596;2023-09-19T07:30:28;99894.97;;;23.74;47.50
51081;BME280;37130;55.670;37.596;2023-09-19T07:32:56;99911.59;;;26.26;44.18
51081;BME280;37130;55.670;37.596;2023-09-19T07:35:24;99916.47;;;27.53;42.14
51081;BME280;37130;55.670;37.596;2023-09-19T07:37:52;99915.91;;;26.94;41.98
51081;BME280;37130;55.670;37.596;2023-09-19T07:40:20;99913.00;;;27.03;41.79
51081;BME280;37130;55.670;37.596;2023-09-19T07:42:48;99913.22;;;26.02;41.96
51081;BME280;37130;55.670;37.596;2023-09-19T07:45:16;99806.13;;;23.79;44.27
51081;BME280;37130;55.670;37.596;2023-09-19T07:48:04;99847.00;;;22.92;46.14
51081;BME280;37130;55.670;37.596;2023-09-19T07:50:34;99905.75;;;22.41;48.48
51081;BME280;37130;55.670;37.596;2023-09-19T07:53:04;99898.84;;;21.88;48.65
51081;BME280;37130;55.670;37.596;2023-09-19T07:55:32;99888.41;;;21.34;49.83
51081;BME280;37130;55.670;37.596;2023-09-19T07:58:01;99860.28;;;20.54;51.57
51081;BME280;37130;55.670;37.596;2023-09-19T08:00:31;99860.28;;;20.54;52.08
51081;BME280;37130;55.670;37.596;2023-09-19T08:03:02;99885.84;;;21.32;51.46
51081;BME280;37130;55.670;37.596;2023-09-19T08:05:44;99880.78;;;21.70;50.68
51081;BME280;37130;55.670;37.596;2023-09-19T08:08:13;99875.44;;;21.99;50.25
51081;BME280;37130;55.670;37.596;2023-09-19T08:10:43;99871.94;;;22.47;49.50
51081;BME280;37130;55.670;37.596;2023-09-19T08:13:13;99873.75;;;22.07;49.65
51081;BME280;37130;55.670;37.596;2023-09-19T08:15:45;99839.38;;;21.40;50.62
51081;BME280;37130;55.670;37.596;2023-09-19T08:18:14;99880.34;;;22.44;49.73
51081;BME280;37130;55.670;37.596;2023-09-19T08:20:43;99802.69;;;22.85;47.84
51081;BME280;37130;55.670;37.596;2023-09-19T08:23:13;99841.22;;;22.77;48.14
51081;BME280;37130;55.670;37.596;2023-09-19T08:25:41;99839.28;;;22.40;48.69
51081;BME280;37130;55.670;37.596;2023-09-19T08:28:08;99837.38;;;21.82;49.66
51081;BME280;37130;55.670;37.596;2023-09-19T08:30:38;99799.03;;;21.59;50.20
51081;BME280;37130;55.670;37.596;2023-09-19T08:33:07;99869.94;;;22.29;49.82
51081;BME280;37130;55.670;37.596;2023-09-19T08:35:35;99786.44;;;21.89;49.54
51081;BME280;37130;55.670;37.596;2023-09-19T08:38:03;99726.69;;;21.84;49.52
51081;BME280;37130;55.670;37.596;2023-09-19T08:40:32;99833.31;;;22.46;49.25
51081;BME280;37130;55.670;37.596;2023-09-19T08:43:01;99838.28;;;22.31;49.05
51081;BME280;37130;55.670;37.596;2023-09-19T08:45:30;99713.53;;;21.21;49.38
51081;BME280;37130;55.670;37.596;2023-09-19T08:51:10;99838.78;;;21.06;51.42
51081;BME280;37130;55.670;37.596;2023-09-19T08:53:51;99799.75;;;20.48;52.64
51081;BME280;37130;55.670;37.596;2023-09-19T08:56:21;99840.94;;;20.81;52.58
51081;BME280;37130;55.670;37.596;2023-09-19T08:58:59;99729.34;;;20.01;52.52
51081;BME280;37130;55.670;37.596;2023-09-19T09:01:28;99830.91;;;20.30;53.57
51081;BME280;37130;55.670;37.596;2023-09-19T09:03:56;99701.84;;;19.33;54.24
51081;BME280;37130;55.670;37.596;2023-09-19T09:06:25;99834.94;;;20.03;54.38
51081;BME280;37130;55.670;37.596;2023-09-19T09:08:55;99816.56;;;19.76;55.07
51081;BME280;37130;55.670;37.596;2023-09-19T09:11:23;99836.13;;;19.67;55.49
51081;BME280;37130;55.670;37.596;2023-09-19T09:13:55;99827.22;;;19.55;55.87
51081;BME280;37130;55.670;37.596;2023-09-19T09:16:25;99796.38;;;19.27;56.56
51081;BME280;37130;55.670;37.596;2023-09-19T09:18:53;99829.28;;;19.63;57.00
51081;BME280;37130;55.670;37.596;2023-09-19T09:21:25;99757.16;;;19.47;55.69
51081;BME280;37130;55.670;37.596;2023-09-19T09:23:53;99820.59;;;19.82;56.02
51081;BME280;37130;55.670;37.596;2023-09-19T09:26:40;99833.09;;;20.04;55.52
51081;BME280;37130;55.670;37.596;2023-09-19T09:29:08;99813.88;;;20.08;55.37
51081;BME280;37130;55.670;37.596;2023-09-19T09:31:35;99779.88;;;20.19;55.34
51081;BME280;37130;55.670;37.596;2023-09-19T09:34:05;99805.59;;;20.74;54.68
51081;BME280;37130;55.670;37.596;2023-09-19T09:36:38;99810.38;;;21.32;53.80
51081;BME280;37130;55.670;37.596;2023-09-19T09:39:07;99796.38;;;21.88;52.16
51081;BME280;37130;55.670;37.596;2023-09-19T09:41:52;99805.59;;;22.44;51.61
51081;BME280;37130;55.670;37.596;2023-09-19T09:44:19;99691.31;;;22.06;50.83
51081;BME280;37130;55.670;37.596;2023-09-19T09:46:48;99792.25;;;22.52;50.98
51081;BME280;37130;55.670;37.596;2023-09-19T09:49:23;99815.69;;;22.52;51.53
51081;BME280;37130;55.670;37.596;2023-09-19T09:52:06;99818.56;;;22.31;51.95
51081;BME280;37130;55.670;37.596;2023-09-19T09:54:38;99783.75;;;21.99;52.08
51081;BME280;37130;55.670;37.596;2023-09-19T09:57:08;99821.91;;;22.14;51.58
51081;BME280;37130;55.670;37.596;2023-09-19T09:59:47;99817.34;;;21.65;52.52
51081;BME280;37130;55.670;37.596;2023-09-19T10:02:20;99803.50;;;21.39;53.35
51081;BME280;37130;55.670;37.596;2023-09-19T10:04:57;99783.81;;;21.58;52.89
51081;BME280;37130;55.670;37.596;2023-09-19T10:07:41;99751.22;;;21.61;52.13
51081;BME280;37130;55.670;37.596;2023-09-19T10:10:33;99805.69;;;21.65;52.61
51081;BME280;37130;55.670;37.596;2023-09-19T10:13:11;99807.97;;;21.79;52.70
51081;BME280;37130;55.670;37.596;2023-09-19T10:15:50;99729.16;;;21.37;52.60
51081;BME280;37130;55.670;37.596;2023-09-19T10:18:24;99803.91;;;22.04;52.21
51081;BME280;37130;55.670;37.596;2023-09-19T10:20:52;99765.97;;;21.77;52.41
51081;BME280;37130;55.670;37.596;2023-09-19T10:23:21;99647.88;;;21.22;52.46
51081;BME280;37130;55.670;37.596;2023-09-19T10:25:53;99798.22;;;22.37;51.88
51081;BME280;37130;55.670;37.596;2023-09-19T10:28:21;99700.44;;;21.96;51.82
51081;BME280;37130;55.670;37.596;2023-09-19T10:30:51;99776.03;;;22.52;51.62
51081;BME280;37130;55.670;37.596;2023-09-19T10:33:24;99678.13;;;22.03;51.89
51081;BME280;37130;55.670;37.596;2023-09-19T10:35:59;99769.25;;;22.29;52.06
51081;BME280;37130;55.670;37.596;2023-09-19T10:38:27;99729.81;;;21.89;52.26
51081;BME280;37130;55.670;37.596;2023-09-19T10:40:56;99763.28;;;22.06;52.95
51081;BME280;37130;55.670;37.596;2023-09-19T10:43:30;99767.97;;;21.84;52.96
51081;BME280;37130;55.670;37.596;2023-09-19T10:46:06;99695.81;;;21.28;53.46
51081;BME280;37130;55.670;37.596;2023-09-19T10:48:35;99759.19;;;21.73;53.54
51081;BME280;37130;55.670;37.596;2023-09-19T10:51:16;99763.28;;;21.77;53.44
51081;BME280;37130;55.670;37.596;2023-09-19T10:53:54;99762.28;;;21.49;53.98
51081;BME280;37130;55.670;37.596;2023-09-19T10:56:30;99753.78;;;21.13;54.90
51081;BME280;37130;55.670;37.596;2023-09-19T10:59:14;99750.03;;;20.94;55.71
51081;BME280;37130;55.670;37.596;2023-09-19T11:01:47;99726.97;;;20.71;56.20
51081;BME280;37130;55.670;37.596;2023-09-19T11:04:34;99755.63;;;20.82;56.30
51081;BME280;37130;55.670;37.596;2023-09-19T11:09:54;99755.63;;;20.82;56.21
51081;BME280;37130;55.670;37.596;2023-09-19T11:14:59;99652.75;;;20.17;56.86
51081;BME280;37130;55.670;37.596;2023-09-19T11:17:31;99751.50;;;20.77;57.01
51081;BME280;37130;55.670;37.596;2023-09-19T11:30:41;99733.81;;;21.25;57.09
51081;BME280;37130;55.670;37.596;2023-09-19T11:33:23;99736.44;;;21.46;56.46
51081;BME280;37130;55.670;37.596;2023-09-19T11:46:27;99730.22;;;21.65;57.28
51081;BME280;37130;55.670;37.596;2023-09-19T11:49:05;99717.88;;;21.62;57.64
51081;BME280;37130;55.670;37.596;2023-09-19T11:51:43;99731.06;;;21.65;56.91
51081;BME280;37130;55.670;37.596;2023-09-19T11:54:14;99715.63;;;21.67;56.60
51081;BME280;37130;55.670;37.596;2023-09-19T11:56:55;99724.97;;;21.73;56.77
51081;BME280;37130;55.670;37.596;2023-09-19T11:59:23;99707.66;;;21.76;56.52
51081;BME280;37130;55.670;37.596;2023-09-19T12:01:53;99719.59;;;21.83;56.75
51081;BME280;37130;55.670;37.596;2023-09-19T12:04:37;99701.00;;;21.80;56.84
51081;BME280;37130;55.670;37.596;2023-09-19T12:07:12;99710.91;;;21.79;56.99
51081;BME280;37130;55.670;37.596;2023-09-19T12:09:49;99706.81;;;21.75;56.82
51081;BME280;37130;55.670;37.596;2023-09-19T12:14:49;99688.50;;;21.79;56.94
51081;BME280;37130;55.670;37.596;2023-09-19T12:17:17;99688.38;;;21.80;57.42
51081;BME280;37130;55.670;37.596;2023-09-19T12:19:56;99687.78;;;21.77;56.89
51081;BME280;37130;55.670;37.596;2023-09-19T12:22:23;99683.53;;;21.74;57.08
51081;BME280;37130;55.670;37.596;2023-09-19T12:24:52;99677.28;;;21.83;57.04
51081;BME280;37130;55.670;37.596;2023-09-19T12:27:21;99682.69;;;21.93;57.59
51081;BME280;37130;55.670;37.596;2023-09-19T12:29:49;99682.09;;;21.99;57.23
51081;BME280;37130;55.670;37.596;2023-09-19T12:32:17;99680.66;;;21.95;56.90
51081;BME280;37130;55.670;37.596;2023-09-19T12:34:52;99606.66;;;21.51;56.73
51081;BME280;37130;55.670;37.596;2023-09-19T12:37:21;99604.84;;;21.51;56.94
51081;BME280;37130;55.670;37.596;2023-09-19T12:40:05;99637.69;;;21.74;57.32
51081;BME280;37130;55.670;37.596;2023-09-19T12:42:49;99657.00;;;21.89;56.94
51081;BME280;37130;55.670;37.596;2023-09-19T12:45:17;99662.50;;;21.97;56.73
51081;BME280;37130;55.670;37.596;2023-09-19T12:48:26;99655.56;;;21.95;57.43
51081;BME280;37130;55.670;37.596;2023-09-19T12:51:06;99648.59;;;21.92;57.07
51081;BME280;37130;55.670;37.596;2023-09-19T12:53:41;99642.06;;;21.95;57.10
51081;BME280;37130;55.670;37.596;2023-09-19T12:56:13;99648.59;;;22.02;56.99
51081;BME280;37130;55.670;37.596;2023-09-19T12:58:59;99648.59;;;21.92;56.98
51081;BME280;37130;55.670;37.596;2023-09-19T13:01:30;99658.13;;;21.96;57.28
51081;BME280;37130;55.670;37.596;2023-09-19T13:04:12;99651.28;;;22.02;57.21
51081;BME280;37130;55.670;37.596;2023-09-19T13:06:48;99638.66;;;22.02;56.96
51081;BME280;37130;55.670;37.596;2023-09-19T13:09:18;99628.88;;;22.01;56.75
51081;BME280;37130;55.670;37.596;2023-09-19T13:11:48;99637.50;;;22.15;56.19
51081;BME280;37130;55.670;37.596;2023-09-19T13:14:24;99643.31;;;22.10;56.38
51081;BME280;37130;55.670;37.596;2023-09-19T13:17:02;99636.53;;;21.96;56.92
51081;BME280;37130;55.670;37.596;2023-09-19T13:19:46;99561.41;;;21.54;57.00
51081;BME280;37130;55.670;37.596;2023-09-19T13:22:39;99557.28;;;21.50;56.93
51081;BME280;37130;55.670;37.596;2023-09-19T13:25:12;99643.34;;;22.00;57.06
51081;BME280;37130;55.670;37.596;2023-09-19T13:27:48;99640.09;;;21.97;57.23
51081;BME280;37130;55.670;37.596;2023-09-19T13:30:19;99551.78;;;21.52;57.21
51081;BME280;37130;55.670;37.596;2023-09-19T13:32:47;99499.34;;;21.17;57.15
51081;BME280;37130;55.670;37.596;2023-09-19T13:35:15;99627.63;;;21.96;57.11
51081;BME280;37130;55.670;37.596;2023-09-19T13:37:44;99641.34;;;21.93;57.64
51081;BME280;37130;55.670;37.596;2023-09-19T13:40:19;99602.38;;;21.77;57.70
51081;BME280;37130;55.670;37.596;2023-09-19T13:42:46;99617.44;;;21.80;57.58
51081;BME280;37130;55.670;37.596;2023-09-19T13:45:13;99621.09;;;21.79;57.64
51081;BME280;37130;55.670;37.596;2023-09-19T13:47:44;99614.31;;;21.75;58.19
51081;BME280;37130;55.670;37.596;2023-09-19T13:50:12;99594.31;;;21.58;58.59
51081;BME280;37130;55.670;37.596;2023-09-19T13:52:39;99608.63;;;21.58;58.48
51081;BME280;37130;55.670;37.596;2023-09-19T13:55:07;99615.03;;;21.57;58.64
51081;BME280;37130;55.670;37.596;2023-09-19T13:57:34;99611.63;;;21.45;58.96
51081;BME280;37130;55.670;37.596;2023-09-19T14:00:02;99563.66;;;21.00;59.44
51081;BME280;37130;55.670;37.596;2023-09-19T14:02:38;99607.91;;;21.27;59.53